createdAt,value
2023-04-30T00:00:55.000Z,280.4985337243431
2023-04-30T00:01:57.000Z,280.01075268817493
2023-04-30T00:02:59.000Z,280.01075268817493
2023-04-30T00:04:02.000Z,279.5229716520068
2023-04-30T00:05:04.000Z,281.47409579667936
2023-04-30T00:06:06.000Z,280.01075268817493
2023-04-30T00:07:09.000Z,280.01075268817493
2023-04-30T00:08:11.000Z,280.4985337243431
2023-04-30T00:09:13.000Z,280.4985337243431
2023-04-30T00:10:16.000Z,280.01075268817493
2023-04-30T00:11:18.000Z,279.03519061583864
2023-04-30T00:12:20.000Z,281.9618768328475
2023-04-30T00:13:22.000Z,279.03519061583864
2023-04-30T00:14:25.000Z,280.01075268817493
2023-04-30T00:15:27.000Z,280.9863147605112
2023-04-30T00:16:29.000Z,280.9863147605112
2023-04-30T00:17:32.000Z,281.47409579667936
2023-04-30T00:18:34.000Z,281.47409579667936
2023-04-30T00:19:36.000Z,279.5229716520068
2023-04-30T00:20:38.000Z,281.47409579667936
2023-04-30T00:21:41.000Z,281.47409579667936
2023-04-30T00:22:43.000Z,281.9618768328475
2023-04-30T00:23:45.000Z,280.9863147605112
2023-04-30T00:24:47.000Z,282.9374389051838
2023-04-30T00:25:50.000Z,282.44965786901565
2023-04-30T00:26:52.000Z,281.47409579667936
2023-04-30T00:27:54.000Z,281.9618768328475
2023-04-30T00:28:57.000Z,280.9863147605112
2023-04-30T00:29:59.000Z,281.47409579667936
2023-04-30T00:31:01.000Z,280.9863147605112
2023-04-30T00:32:04.000Z,280.4985337243431
2023-04-30T00:33:06.000Z,280.4985337243431
2023-04-30T00:34:08.000Z,280.9863147605112
2023-04-30T00:35:10.000Z,280.4985337243431
2023-04-30T00:36:13.000Z,281.9618768328475
2023-04-30T00:37:15.000Z,279.03519061583864
2023-04-30T00:38:17.000Z,280.4985337243431
2023-04-30T00:39:20.000Z,280.4985337243431
2023-04-30T00:40:22.000Z,278.5474095796705
2023-04-30T00:41:24.000Z,280.4985337243431
2023-04-30T00:42:26.000Z,280.9863147605112
2023-04-30T00:43:29.000Z,280.4985337243431
2023-04-30T00:44:31.000Z,280.01075268817493
2023-04-30T00:45:38.000Z,280.9863147605112
2023-04-30T00:46:42.000Z,280.9863147605112
2023-04-30T00:47:44.000Z,280.9863147605112
2023-04-30T00:48:46.000Z,280.4985337243431
2023-04-30T00:49:48.000Z,280.9863147605112
2023-04-30T00:50:51.000Z,280.9863147605112
2023-04-30T00:51:53.000Z,280.9863147605112
2023-04-30T00:52:56.000Z,280.9863147605112
2023-04-30T00:53:58.000Z,280.01075268817493
2023-04-30T00:55:00.000Z,280.9863147605112
2023-04-30T00:56:03.000Z,279.5229716520068
2023-04-30T00:57:05.000Z,277.5718475073342
2023-04-30T00:58:07.000Z,279.5229716520068
2023-04-30T00:59:09.000Z,280.4985337243431
2023-04-30T01:00:12.000Z,279.5229716520068
2023-04-30T01:01:14.000Z,279.5229716520068
2023-04-30T01:02:16.000Z,278.05962854350236
2023-04-30T01:03:19.000Z,279.03519061583864
2023-04-30T01:04:21.000Z,279.03519061583864
2023-04-30T01:05:23.000Z,278.5474095796705
2023-04-30T01:06:26.000Z,279.5229716520068
2023-04-30T01:07:28.000Z,280.01075268817493
2023-04-30T01:08:30.000Z,279.5229716520068
2023-04-30T01:09:33.000Z,280.4985337243431
2023-04-30T01:10:35.000Z,280.4985337243431
2023-04-30T01:11:37.000Z,279.5229716520068
2023-04-30T01:12:39.000Z,280.4985337243431
2023-04-30T01:13:42.000Z,278.5474095796705
2023-04-30T01:14:44.000Z,280.01075268817493
2023-04-30T01:15:46.000Z,280.4985337243431
2023-04-30T01:16:49.000Z,280.4985337243431
2023-04-30T01:17:51.000Z,280.4985337243431
2023-04-30T01:18:53.000Z,280.9863147605112
2023-04-30T01:19:56.000Z,280.4985337243431
2023-04-30T01:20:58.000Z,277.5718475073342
2023-04-30T01:22:00.000Z,280.01075268817493
2023-04-30T01:23:02.000Z,279.5229716520068
2023-04-30T01:24:05.000Z,278.5474095796705
2023-04-30T01:25:07.000Z,279.03519061583864
2023-04-30T01:26:09.000Z,279.5229716520068
2023-04-30T01:27:12.000Z,278.5474095796705
2023-04-30T01:28:14.000Z,279.5229716520068
2023-04-30T01:29:16.000Z,279.5229716520068
2023-04-30T01:30:18.000Z,279.5229716520068
2023-04-30T01:31:21.000Z,277.5718475073342
2023-04-30T01:32:23.000Z,278.5474095796705
2023-04-30T01:33:25.000Z,279.5229716520068
2023-04-30T01:34:27.000Z,279.03519061583864
2023-04-30T01:35:30.000Z,280.4985337243431
2023-04-30T01:36:32.000Z,280.4985337243431
2023-04-30T01:37:34.000Z,280.4985337243431
2023-04-30T01:38:36.000Z,279.5229716520068
2023-04-30T01:39:39.000Z,281.9618768328475
2023-04-30T01:40:41.000Z,280.01075268817493
2023-04-30T01:41:43.000Z,280.4985337243431
2023-04-30T01:42:46.000Z,281.47409579667936
2023-04-30T01:43:48.000Z,279.5229716520068
2023-04-30T01:44:50.000Z,279.5229716520068
2023-04-30T01:45:53.000Z,281.9618768328475
2023-04-30T01:46:55.000Z,279.5229716520068
2023-04-30T01:47:57.000Z,280.4985337243431
2023-04-30T01:48:59.000Z,278.5474095796705
2023-04-30T01:50:02.000Z,279.5229716520068
2023-04-30T01:51:04.000Z,279.5229716520068
2023-04-30T01:52:06.000Z,279.5229716520068
2023-04-30T01:53:08.000Z,279.5229716520068
2023-04-30T01:54:11.000Z,278.5474095796705
2023-04-30T01:55:13.000Z,279.5229716520068
2023-04-30T01:56:15.000Z,279.03519061583864
2023-04-30T01:57:17.000Z,279.03519061583864
2023-04-30T01:58:20.000Z,278.5474095796705
2023-04-30T01:59:22.000Z,280.4985337243431
2023-04-30T02:00:24.000Z,279.03519061583864
2023-04-30T02:01:27.000Z,278.5474095796705
2023-04-30T02:02:29.000Z,277.08406647116607
2023-04-30T02:03:31.000Z,279.03519061583864
2023-04-30T02:04:33.000Z,278.5474095796705
2023-04-30T02:05:36.000Z,280.01075268817493
2023-04-30T02:06:38.000Z,280.4985337243431
2023-04-30T02:07:40.000Z,279.5229716520068
2023-04-30T02:08:43.000Z,280.9863147605112
2023-04-30T02:09:45.000Z,280.01075268817493
2023-04-30T02:10:47.000Z,280.4985337243431
2023-04-30T02:11:49.000Z,279.5229716520068
2023-04-30T02:12:52.000Z,281.47409579667936
2023-04-30T02:13:54.000Z,280.01075268817493
2023-04-30T02:14:56.000Z,280.01075268817493
2023-04-30T02:15:59.000Z,280.4985337243431
2023-04-30T02:17:01.000Z,278.05962854350236
2023-04-30T02:18:04.000Z,278.5474095796705
2023-04-30T02:19:06.000Z,279.5229716520068
2023-04-30T02:20:08.000Z,279.03519061583864
2023-04-30T02:21:10.000Z,279.5229716520068
2023-04-30T02:22:13.000Z,279.03519061583864
2023-04-30T02:23:15.000Z,278.5474095796705
2023-04-30T02:24:17.000Z,278.5474095796705
2023-04-30T02:25:20.000Z,279.03519061583864
2023-04-30T02:26:22.000Z,278.05962854350236
2023-04-30T02:27:24.000Z,279.03519061583864
2023-04-30T02:28:26.000Z,277.5718475073342
2023-04-30T02:29:29.000Z,279.03519061583864
2023-04-30T02:30:31.000Z,279.03519061583864
2023-04-30T02:31:33.000Z,280.01075268817493
2023-04-30T02:32:36.000Z,279.5229716520068
2023-04-30T02:33:38.000Z,279.5229716520068
2023-04-30T02:34:40.000Z,280.4985337243431
2023-04-30T02:35:42.000Z,280.4985337243431
2023-04-30T02:36:45.000Z,280.01075268817493
2023-04-30T02:37:47.000Z,279.5229716520068
2023-04-30T02:38:49.000Z,280.01075268817493
2023-04-30T02:39:52.000Z,280.9863147605112
2023-04-30T02:40:54.000Z,280.01075268817493
2023-04-30T02:41:56.000Z,279.5229716520068
2023-04-30T02:42:59.000Z,280.4985337243431
2023-04-30T02:44:01.000Z,280.4985337243431
2023-04-30T02:45:03.000Z,279.5229716520068
2023-04-30T02:46:06.000Z,280.9863147605112
2023-04-30T02:47:08.000Z,279.5229716520068
2023-04-30T02:48:10.000Z,279.03519061583864
2023-04-30T02:49:12.000Z,279.03519061583864
2023-04-30T02:50:15.000Z,278.5474095796705
2023-04-30T02:51:17.000Z,278.5474095796705
2023-04-30T02:52:19.000Z,278.5474095796705
2023-04-30T02:53:22.000Z,279.5229716520068
2023-04-30T02:54:24.000Z,279.03519061583864
2023-04-30T02:55:26.000Z,279.5229716520068
2023-04-30T02:56:28.000Z,279.03519061583864
2023-04-30T02:57:31.000Z,279.03519061583864
2023-04-30T02:58:33.000Z,278.05962854350236
2023-04-30T02:59:35.000Z,280.01075268817493
2023-04-30T03:00:38.000Z,280.01075268817493
2023-04-30T03:01:40.000Z,280.4985337243431
2023-04-30T03:02:42.000Z,279.03519061583864
2023-04-30T03:03:44.000Z,280.01075268817493
2023-04-30T03:04:47.000Z,279.5229716520068
2023-04-30T03:05:49.000Z,280.01075268817493
2023-04-30T03:06:51.000Z,280.9863147605112
2023-04-30T03:07:54.000Z,280.01075268817493
2023-04-30T03:08:56.000Z,281.9618768328475
2023-04-30T03:09:58.000Z,280.4985337243431
2023-04-30T03:11:00.000Z,279.5229716520068
2023-04-30T03:12:03.000Z,280.01075268817493
2023-04-30T03:13:05.000Z,279.03519061583864
2023-04-30T03:14:07.000Z,279.5229716520068
2023-04-30T03:15:09.000Z,278.5474095796705
2023-04-30T03:16:12.000Z,279.5229716520068
2023-04-30T03:17:14.000Z,279.03519061583864
2023-04-30T03:18:16.000Z,277.5718475073342
2023-04-30T03:19:18.000Z,278.05962854350236
2023-04-30T03:20:21.000Z,279.5229716520068
2023-04-30T03:21:23.000Z,279.03519061583864
2023-04-30T03:22:25.000Z,278.5474095796705
2023-04-30T03:23:28.000Z,279.5229716520068
2023-04-30T03:24:30.000Z,278.5474095796705
2023-04-30T03:25:32.000Z,279.03519061583864
2023-04-30T03:26:34.000Z,278.5474095796705
2023-04-30T03:27:37.000Z,280.01075268817493
2023-04-30T03:28:39.000Z,280.01075268817493
2023-04-30T03:29:41.000Z,280.9863147605112
2023-04-30T03:30:44.000Z,278.05962854350236
2023-04-30T03:31:46.000Z,280.4985337243431
2023-04-30T03:32:48.000Z,279.03519061583864
2023-04-30T03:33:50.000Z,280.01075268817493
2023-04-30T03:34:53.000Z,279.5229716520068
2023-04-30T03:35:55.000Z,279.5229716520068
2023-04-30T03:36:57.000Z,280.01075268817493
2023-04-30T03:38:00.000Z,281.47409579667936
2023-04-30T03:39:02.000Z,280.01075268817493
2023-04-30T03:40:04.000Z,280.9863147605112
2023-04-30T03:41:06.000Z,278.05962854350236
2023-04-30T03:42:09.000Z,279.5229716520068
2023-04-30T03:43:11.000Z,277.5718475073342
2023-04-30T03:44:13.000Z,279.5229716520068
2023-04-30T03:45:16.000Z,280.01075268817493
2023-04-30T03:46:18.000Z,279.5229716520068
2023-04-30T03:47:20.000Z,278.05962854350236
2023-04-30T03:48:22.000Z,280.9863147605112
2023-04-30T03:49:25.000Z,279.03519061583864
2023-04-30T03:50:27.000Z,279.5229716520068
2023-04-30T03:51:29.000Z,279.5229716520068
2023-04-30T03:52:32.000Z,279.03519061583864
2023-04-30T03:53:34.000Z,280.01075268817493
2023-04-30T03:54:36.000Z,281.47409579667936
2023-04-30T03:55:38.000Z,281.47409579667936
2023-04-30T03:56:41.000Z,281.9618768328475
2023-04-30T03:57:43.000Z,281.47409579667936
2023-04-30T03:58:45.000Z,280.4985337243431
2023-04-30T03:59:48.000Z,280.4985337243431
2023-04-30T04:00:50.000Z,281.47409579667936
2023-04-30T04:01:52.000Z,283.42521994135194
2023-04-30T04:02:55.000Z,281.47409579667936
2023-04-30T04:03:57.000Z,281.47409579667936
2023-04-30T04:04:59.000Z,280.4985337243431
2023-04-30T04:06:02.000Z,281.47409579667936
2023-04-30T04:07:04.000Z,281.47409579667936
2023-04-30T04:08:06.000Z,281.47409579667936
2023-04-30T04:09:08.000Z,281.9618768328475
2023-04-30T04:10:11.000Z,280.9863147605112
2023-04-30T04:11:13.000Z,280.4985337243431
2023-04-30T04:12:15.000Z,280.9863147605112
2023-04-30T04:13:17.000Z,280.9863147605112
2023-04-30T04:14:20.000Z,280.4985337243431
2023-04-30T04:15:22.000Z,280.01075268817493
2023-04-30T04:16:25.000Z,280.4985337243431
2023-04-30T04:17:27.000Z,280.9863147605112
2023-04-30T04:18:29.000Z,280.9863147605112
2023-04-30T04:19:31.000Z,279.5229716520068
2023-04-30T04:20:33.000Z,280.4985337243431
2023-04-30T04:21:36.000Z,280.4985337243431
2023-04-30T04:22:38.000Z,281.47409579667936
2023-04-30T04:23:40.000Z,280.4985337243431
2023-04-30T04:24:43.000Z,282.9374389051838
2023-04-30T04:25:45.000Z,281.9618768328475
2023-04-30T04:26:47.000Z,281.9618768328475
2023-04-30T04:27:49.000Z,281.47409579667936
2023-04-30T04:28:52.000Z,281.47409579667936
2023-04-30T04:29:54.000Z,281.9618768328475
2023-04-30T04:30:56.000Z,281.47409579667936
2023-04-30T04:31:59.000Z,280.4985337243431
2023-04-30T04:33:01.000Z,282.9374389051838
2023-04-30T04:34:03.000Z,281.47409579667936
2023-04-30T04:35:05.000Z,280.4985337243431
2023-04-30T04:36:08.000Z,278.5474095796705
2023-04-30T04:37:10.000Z,280.4985337243431
2023-04-30T04:38:12.000Z,280.4985337243431
2023-04-30T04:39:14.000Z,279.5229716520068
2023-04-30T04:40:17.000Z,278.5474095796705
2023-04-30T04:41:19.000Z,280.9863147605112
2023-04-30T04:42:21.000Z,280.4985337243431
2023-04-30T04:43:24.000Z,279.03519061583864
2023-04-30T04:44:26.000Z,280.01075268817493
2023-04-30T04:45:28.000Z,280.01075268817493
2023-04-30T04:46:31.000Z,279.03519061583864
2023-04-30T04:47:33.000Z,279.03519061583864
2023-04-30T04:48:35.000Z,279.5229716520068
2023-04-30T04:49:37.000Z,280.01075268817493
2023-04-30T04:50:40.000Z,280.4985337243431
2023-04-30T04:51:47.000Z,280.9863147605112
2023-04-30T04:52:49.000Z,280.9863147605112
2023-04-30T04:53:51.000Z,280.01075268817493
2023-04-30T04:54:54.000Z,280.4985337243431
2023-04-30T04:55:56.000Z,281.47409579667936
2023-04-30T04:56:58.000Z,280.9863147605112
2023-04-30T04:58:01.000Z,281.47409579667936
2023-04-30T04:59:03.000Z,281.47409579667936
2023-04-30T05:00:05.000Z,280.01075268817493
2023-04-30T05:01:07.000Z,281.47409579667936
2023-04-30T05:02:10.000Z,280.01075268817493
2023-04-30T05:03:12.000Z,280.9863147605112
2023-04-30T05:04:14.000Z,280.4985337243431
2023-04-30T05:05:17.000Z,280.4985337243431
2023-04-30T05:06:19.000Z,280.01075268817493
2023-04-30T05:07:21.000Z,279.03519061583864
2023-04-30T05:08:23.000Z,280.01075268817493
2023-04-30T05:09:26.000Z,280.9863147605112
2023-04-30T05:10:28.000Z,278.5474095796705
2023-04-30T05:11:30.000Z,279.03519061583864
2023-04-30T05:12:33.000Z,279.5229716520068
2023-04-30T05:13:35.000Z,280.01075268817493
2023-04-30T05:14:37.000Z,281.47409579667936
2023-04-30T05:15:39.000Z,279.5229716520068
2023-04-30T05:16:42.000Z,281.47409579667936
2023-04-30T05:17:44.000Z,281.9618768328475
2023-04-30T05:18:46.000Z,281.47409579667936
2023-04-30T05:19:48.000Z,280.4985337243431
2023-04-30T05:20:51.000Z,281.9618768328475
2023-04-30T05:21:53.000Z,281.9618768328475
2023-04-30T05:22:55.000Z,281.9618768328475
2023-04-30T05:23:57.000Z,280.9863147605112
2023-04-30T05:25:00.000Z,283.9130009775201
2023-04-30T05:26:02.000Z,281.47409579667936
2023-04-30T05:27:04.000Z,283.42521994135194
2023-04-30T05:28:07.000Z,280.9863147605112
2023-04-30T05:29:09.000Z,282.9374389051838
2023-04-30T05:30:11.000Z,280.9863147605112
2023-04-30T05:31:14.000Z,281.47409579667936
2023-04-30T05:32:16.000Z,280.9863147605112
2023-04-30T05:33:18.000Z,280.01075268817493
2023-04-30T05:34:20.000Z,279.5229716520068
2023-04-30T05:35:23.000Z,280.4985337243431
2023-04-30T05:36:25.000Z,280.9863147605112
2023-04-30T05:37:27.000Z,280.01075268817493
2023-04-30T05:38:30.000Z,280.01075268817493
2023-04-30T05:39:32.000Z,280.9863147605112
2023-04-30T05:40:34.000Z,280.4985337243431
2023-04-30T05:41:36.000Z,280.01075268817493
2023-04-30T05:42:39.000Z,280.01075268817493
2023-04-30T05:43:41.000Z,279.03519061583864
2023-04-30T05:44:43.000Z,280.01075268817493
2023-04-30T05:45:46.000Z,281.47409579667936
2023-04-30T05:46:48.000Z,281.47409579667936
2023-04-30T05:47:50.000Z,280.4985337243431
2023-04-30T05:48:52.000Z,280.9863147605112
2023-04-30T05:49:55.000Z,280.4985337243431
2023-04-30T05:50:57.000Z,280.4985337243431
2023-04-30T05:51:59.000Z,280.01075268817493
2023-04-30T05:53:02.000Z,280.01075268817493
2023-04-30T05:54:04.000Z,280.9863147605112
2023-04-30T05:55:06.000Z,282.44965786901565
2023-04-30T05:56:09.000Z,280.9863147605112
2023-04-30T05:57:11.000Z,280.4985337243431
2023-04-30T05:58:13.000Z,280.01075268817493
2023-04-30T05:59:16.000Z,279.5229716520068
2023-04-30T06:00:18.000Z,279.03519061583864
2023-04-30T06:01:20.000Z,279.03519061583864
2023-04-30T06:02:22.000Z,280.9863147605112
2023-04-30T06:03:24.000Z,280.01075268817493
2023-04-30T06:04:27.000Z,280.01075268817493
2023-04-30T06:05:29.000Z,279.03519061583864
2023-04-30T06:06:31.000Z,279.5229716520068
2023-04-30T06:07:34.000Z,280.01075268817493
2023-04-30T06:08:36.000Z,279.5229716520068
2023-04-30T06:09:38.000Z,279.5229716520068
2023-04-30T06:10:40.000Z,279.03519061583864
2023-04-30T06:11:43.000Z,280.01075268817493
2023-04-30T06:12:45.000Z,280.9863147605112
2023-04-30T06:13:47.000Z,280.9863147605112
2023-04-30T06:14:50.000Z,280.9863147605112
2023-04-30T06:15:52.000Z,280.9863147605112
2023-04-30T06:16:54.000Z,280.01075268817493
2023-04-30T06:17:56.000Z,280.9863147605112
2023-04-30T06:18:59.000Z,280.4985337243431
2023-04-30T06:20:01.000Z,280.9863147605112
2023-04-30T06:21:03.000Z,280.9863147605112
2023-04-30T06:22:06.000Z,279.03519061583864
2023-04-30T06:23:08.000Z,282.44965786901565
2023-04-30T06:24:10.000Z,281.47409579667936
2023-04-30T06:25:13.000Z,281.47409579667936
2023-04-30T06:26:15.000Z,280.4985337243431
2023-04-30T06:27:17.000Z,280.01075268817493
2023-04-30T06:28:19.000Z,280.01075268817493
2023-04-30T06:29:22.000Z,280.4985337243431
2023-04-30T06:30:24.000Z,280.01075268817493
2023-04-30T06:31:26.000Z,282.44965786901565
2023-04-30T06:32:29.000Z,280.4985337243431
2023-04-30T06:33:31.000Z,279.5229716520068
2023-04-30T06:34:33.000Z,280.4985337243431
2023-04-30T06:35:35.000Z,278.5474095796705
2023-04-30T06:36:38.000Z,280.4985337243431
2023-04-30T06:37:40.000Z,280.01075268817493
2023-04-30T06:38:42.000Z,279.5229716520068
2023-04-30T06:39:45.000Z,280.9863147605112
2023-04-30T06:40:47.000Z,281.47409579667936
2023-04-30T06:41:49.000Z,280.9863147605112
2023-04-30T06:42:51.000Z,281.47409579667936
2023-04-30T06:43:54.000Z,281.47409579667936
2023-04-30T06:44:56.000Z,281.9618768328475
2023-04-30T06:45:58.000Z,280.4985337243431
2023-04-30T06:47:01.000Z,281.47409579667936
2023-04-30T06:48:03.000Z,281.47409579667936
2023-04-30T06:49:05.000Z,281.47409579667936
2023-04-30T06:50:07.000Z,281.47409579667936
2023-04-30T06:51:10.000Z,280.9863147605112
2023-04-30T06:52:12.000Z,279.5229716520068
2023-04-30T06:53:14.000Z,280.9863147605112
2023-04-30T06:54:17.000Z,280.4985337243431
2023-04-30T06:55:19.000Z,280.01075268817493
2023-04-30T06:56:21.000Z,279.5229716520068
2023-04-30T06:57:23.000Z,280.4985337243431
2023-04-30T06:58:26.000Z,279.5229716520068
2023-04-30T06:59:28.000Z,280.01075268817493
2023-04-30T07:00:30.000Z,280.9863147605112
2023-04-30T07:01:33.000Z,279.03519061583864
2023-04-30T07:02:35.000Z,280.4985337243431
2023-04-30T07:03:37.000Z,280.4985337243431
2023-04-30T07:04:39.000Z,278.5474095796705
2023-04-30T07:05:42.000Z,280.01075268817493
2023-04-30T07:06:44.000Z,278.5474095796705
2023-04-30T07:07:46.000Z,280.01075268817493
2023-04-30T07:08:49.000Z,278.5474095796705
2023-04-30T07:09:51.000Z,280.9863147605112
2023-04-30T07:10:53.000Z,280.9863147605112
2023-04-30T07:11:55.000Z,280.01075268817493
2023-04-30T07:12:58.000Z,280.9863147605112
2023-04-30T07:14:00.000Z,280.9863147605112
2023-04-30T07:15:02.000Z,281.47409579667936
2023-04-30T07:16:05.000Z,280.01075268817493
2023-04-30T07:17:07.000Z,280.9863147605112
2023-04-30T07:18:09.000Z,280.9863147605112
2023-04-30T07:19:12.000Z,281.47409579667936
2023-04-30T07:20:14.000Z,280.4985337243431
2023-04-30T07:21:16.000Z,281.47409579667936
2023-04-30T07:22:18.000Z,280.4985337243431
2023-04-30T07:23:21.000Z,280.01075268817493
2023-04-30T07:24:23.000Z,280.4985337243431
2023-04-30T07:25:25.000Z,280.01075268817493
2023-04-30T07:26:27.000Z,279.5229716520068
2023-04-30T07:27:30.000Z,280.4985337243431
2023-04-30T07:28:32.000Z,280.9863147605112
2023-04-30T07:29:34.000Z,280.01075268817493
2023-04-30T07:30:36.000Z,280.4985337243431
2023-04-30T07:31:39.000Z,280.4985337243431
2023-04-30T07:32:41.000Z,280.9863147605112
2023-04-30T07:33:43.000Z,279.5229716520068
2023-04-30T07:34:46.000Z,279.5229716520068
2023-04-30T07:35:48.000Z,280.9863147605112
2023-04-30T07:36:50.000Z,281.47409579667936
2023-04-30T07:37:53.000Z,281.47409579667936
2023-04-30T07:38:55.000Z,281.47409579667936
2023-04-30T07:39:57.000Z,280.9863147605112
2023-04-30T07:41:00.000Z,280.9863147605112
2023-04-30T07:42:02.000Z,280.01075268817493
2023-04-30T07:43:04.000Z,281.47409579667936
2023-04-30T07:44:06.000Z,281.47409579667936
2023-04-30T07:45:09.000Z,282.9374389051838
2023-04-30T07:46:11.000Z,281.9618768328475
2023-04-30T07:47:13.000Z,281.47409579667936
2023-04-30T07:48:16.000Z,280.9863147605112
2023-04-30T07:49:18.000Z,281.9618768328475
2023-04-30T07:50:30.000Z,280.4985337243431
2023-04-30T07:51:32.000Z,279.5229716520068
2023-04-30T07:52:35.000Z,280.4985337243431
2023-04-30T07:53:37.000Z,280.9863147605112
2023-04-30T07:54:39.000Z,280.01075268817493
2023-04-30T07:55:41.000Z,281.47409579667936
2023-04-30T07:56:44.000Z,280.4985337243431
2023-04-30T07:57:46.000Z,280.4985337243431
2023-04-30T07:58:48.000Z,280.9863147605112
2023-04-30T07:59:51.000Z,280.9863147605112
2023-04-30T08:00:53.000Z,281.47409579667936
2023-04-30T08:01:55.000Z,282.44965786901565
2023-04-30T08:02:57.000Z,280.4985337243431
2023-04-30T08:04:00.000Z,281.47409579667936
2023-04-30T08:05:02.000Z,281.9618768328475
2023-04-30T08:06:04.000Z,281.9618768328475
2023-04-30T08:07:07.000Z,282.44965786901565
2023-04-30T08:08:09.000Z,282.9374389051838
2023-04-30T08:09:11.000Z,282.44965786901565
2023-04-30T08:10:13.000Z,283.42521994135194
2023-04-30T08:11:16.000Z,283.9130009775201
2023-04-30T08:12:18.000Z,281.9618768328475
2023-04-30T08:13:20.000Z,280.9863147605112
2023-04-30T08:14:23.000Z,281.47409579667936
2023-04-30T08:15:25.000Z,278.5474095796705
2023-04-30T08:16:27.000Z,279.5229716520068
2023-04-30T08:17:30.000Z,280.9863147605112
2023-04-30T08:18:32.000Z,279.5229716520068
2023-04-30T08:19:34.000Z,280.9863147605112
2023-04-30T08:20:36.000Z,280.9863147605112
2023-04-30T08:21:39.000Z,282.44965786901565
2023-04-30T08:22:41.000Z,281.47409579667936
2023-04-30T08:23:43.000Z,280.4985337243431
2023-04-30T08:24:46.000Z,280.9863147605112
2023-04-30T08:25:48.000Z,279.5229716520068
2023-04-30T08:26:50.000Z,281.47409579667936
2023-04-30T08:27:53.000Z,282.44965786901565
2023-04-30T08:28:55.000Z,282.9374389051838
2023-04-30T08:29:57.000Z,282.44965786901565
2023-04-30T08:31:00.000Z,281.47409579667936
2023-04-30T08:32:02.000Z,281.47409579667936
2023-04-30T08:33:04.000Z,281.47409579667936
2023-04-30T08:34:07.000Z,283.9130009775201
2023-04-30T08:35:09.000Z,281.47409579667936
2023-04-30T08:36:11.000Z,284.40078201368823
2023-04-30T08:37:13.000Z,282.44965786901565
2023-04-30T08:38:16.000Z,282.9374389051838
2023-04-30T08:39:18.000Z,281.9618768328475
2023-04-30T08:40:20.000Z,281.9618768328475
2023-04-30T08:41:22.000Z,282.44965786901565
2023-04-30T08:42:25.000Z,282.44965786901565
2023-04-30T08:43:27.000Z,282.44965786901565
2023-04-30T08:44:29.000Z,282.9374389051838
2023-04-30T08:45:32.000Z,281.9618768328475
2023-04-30T08:46:34.000Z,283.9130009775201
2023-04-30T08:47:36.000Z,281.9618768328475
2023-04-30T08:48:38.000Z,282.44965786901565
2023-04-30T08:49:41.000Z,281.9618768328475
2023-04-30T08:50:43.000Z,281.47409579667936
2023-04-30T08:51:45.000Z,280.9863147605112
2023-04-30T08:52:48.000Z,281.47409579667936
2023-04-30T08:53:50.000Z,280.9863147605112
2023-04-30T08:54:52.000Z,282.44965786901565
2023-04-30T08:55:54.000Z,283.42521994135194
2023-04-30T08:56:57.000Z,282.44965786901565
2023-04-30T08:57:59.000Z,281.47409579667936
2023-04-30T08:59:01.000Z,282.44965786901565
2023-04-30T09:00:04.000Z,282.9374389051838
2023-04-30T09:01:06.000Z,281.9618768328475
2023-04-30T09:02:08.000Z,283.42521994135194
2023-04-30T09:03:11.000Z,282.44965786901565
2023-04-30T09:04:13.000Z,282.9374389051838
2023-04-30T09:05:15.000Z,282.9374389051838
2023-04-30T09:06:17.000Z,283.42521994135194
2023-04-30T09:07:20.000Z,283.42521994135194
2023-04-30T09:08:22.000Z,282.44965786901565
2023-04-30T09:09:24.000Z,281.9618768328475
2023-04-30T09:10:27.000Z,282.44965786901565
2023-04-30T09:11:29.000Z,282.44965786901565
2023-04-30T09:12:31.000Z,281.9618768328475
2023-04-30T09:13:33.000Z,282.44965786901565
2023-04-30T09:14:36.000Z,281.9618768328475
2023-04-30T09:15:38.000Z,280.4985337243431
2023-04-30T09:16:40.000Z,283.42521994135194
2023-04-30T09:17:43.000Z,280.4985337243431
2023-04-30T09:18:45.000Z,281.9618768328475
2023-04-30T09:19:47.000Z,281.47409579667936
2023-04-30T09:20:49.000Z,280.9863147605112
2023-04-30T09:21:52.000Z,281.47409579667936
2023-04-30T09:22:54.000Z,282.44965786901565
2023-04-30T09:23:56.000Z,281.9618768328475
2023-04-30T09:24:59.000Z,282.44965786901565
2023-04-30T09:26:01.000Z,282.9374389051838
2023-04-30T09:27:03.000Z,282.44965786901565
2023-04-30T09:28:05.000Z,282.44965786901565
2023-04-30T09:29:08.000Z,281.47409579667936
2023-04-30T09:30:10.000Z,281.9618768328475
2023-04-30T09:31:12.000Z,282.9374389051838
2023-04-30T09:32:15.000Z,282.44965786901565
2023-04-30T09:33:17.000Z,281.9618768328475